Tahchee, Arizona
Current Conditions -  °F | °C
As of 8:53 AM on Sunday 25 Jan 2015 (Local Time) from KRQE Reporting Station
Clear Clear  
Wind Chill: 30°   Ceiling: Unl
Heat Index: 30°   Visibility: 10mi
Dew Point: 19°   Wind: 3mph
Humidity: 64%   Direction: 40°NE
Pressure: 30.33"   Gusts: NA
Location:  36.1012°N, 109.584°W
Report Text: KRQE 251553Z AUTO 04003KT 10SM CLR M01/M07 A3033 RMK AO2 SLP256 T10111072 TSNO
Loading
Personal Weather Stations






























Interactive Weather Map New forecast layout! Learn more

10-Day Weather Forecast

Advertisements
Track Severe Weather on mobile